Flight Track Log - Related Links

Times and Time Zones

All times are in EDT time to prevent confusion due to time zone crossing. See the FLG3341 flight status page for this flight to view local times or setup timezone preferences in your user account.

Time Position Orientation Groundspeed Altitude Reporting Facility
EDT Latitude Longitude Course Direction KTS MPH feet Rate Location/Type
Tue 04:38:07 PM 39.0500 -84.6667 270° West 142 163 1,300  Level Cincinnati TRACON
Tue 04:38:37 PM 39.0500 -84.7000 270° West 140 161 2,600 2,071 Climbing Cincinnati TRACON
Tue 04:39:31 PM 39.0500 -84.7667 270° West 217 250 4,200 2,684 Climbing Cincinnati TRACON
Tue 04:40:31 PM 39.0500 -84.8500 270° West 263 303 7,700 3,321 Climbing Cincinnati TRACON
Tue 04:41:23 PM 39.0106 -84.9036 227° Southwest 266 306 10,400 2,263 Climbing Indianapolis Center
Tue 04:42:25 PM 38.9217 -84.8850 171° South 325 374 12,000 1,258 Climbing Indianapolis Center
Tue 04:43:27 PM 38.8003 -84.8933 183° South 367 422 13,000 1,210 Climbing Indianapolis Center
Tue 04:44:29 PM 38.6936 -84.9225 192° South 387 445 14,500 1,887 Climbing Indianapolis Center
Tue 04:45:31 PM 38.5914 -84.9497 192° South 389 448 16,900 2,274 Climbing Indianapolis Center
Tue 04:46:33 PM 38.4717 -84.9828 192° South 385 443 19,200 1,500 Climbing Indianapolis Center
Tue 04:47:35 PM 38.3708 -85.0339 202° Southwest 383 441 20,000 387 Climbing Indianapolis Center
Tue 04:48:37 PM 38.2964 -85.1344 227° Southwest 390 449 20,000  Level Indianapolis Center
Tue 04:49:39 PM 38.2414 -85.2600 241° Southwest 386 444 20,000  Level Indianapolis Center
Tue 04:50:41 PM 38.1897 -85.3803 241° Southwest 385 443 20,000  Level Indianapolis Center
Tue 04:51:43 PM 38.1375 -85.5000 241° Southwest 385 443 20,000  Level Indianapolis Center
Tue 04:52:45 PM 38.0497 -85.5856 218° Southwest 412 474 20,000  Level Indianapolis Center
Tue 04:53:47 PM 37.9256 -85.6031 186° South 441 507 20,000  Level Indianapolis Center
Tue 04:54:49 PM 37.8019 -85.6208 186° South 441 507 20,000  Level Indianapolis Center
Tue 04:55:51 PM 37.6786 -85.6383 186° South 442 509 20,000  Level Indianapolis Center
Tue 04:56:53 PM 37.5314 -85.6600 187° South 442 509 20,000  Level Indianapolis Center
Tue 04:57:55 PM 37.4078 -85.6792 187° South 442 509 20,000  Level Indianapolis Center
Tue 04:58:57 PM 37.2869 -85.6958 186° South 438 504 20,000  Level Indianapolis Center
Tue 04:59:59 PM 37.1653 -85.7128 186° South 437 503 20,000  Level Indianapolis Center
Tue 05:01:01 PM 37.0439 -85.7300 186° South 437 503 20,000  Level Indianapolis Center
Tue 05:02:03 PM 36.9228 -85.7456 186° South 436 502 20,000  Level Indianapolis Center
Tue 05:02:54 PM 36.8214 -85.7597 186° South 433 498 20,000 -526 Level Memphis Center
Tue 05:03:57 PM 36.7003 -85.7758 186° South 434 499 19,000 -1,344 Descending Memphis Center
Tue 05:04:59 PM 36.5833 -85.7958 188° South 415 478 17,200 -1,694 Descending Memphis Center
Tue 05:06:01 PM 36.5125 -85.9069 232° Southwest 367 422 15,500 -1,887 Descending Memphis Center
Tue 05:07:03 PM 36.4606 -86.0181 240° Southwest 358 412 13,300 -1,935 Descending Memphis Center
Tue 05:08:05 PM 36.4122 -86.1164 239° Southwest 351 404 11,500 -1,597 Descending Memphis Center
Tue 05:09:07 PM 36.3661 -86.2119 239° Southwest 329 379 10,000 -726 Descending Memphis Center
Tue 05:10:09 PM 36.3239 -86.2986 239° Southwest 301 346 10,000 -387 Level Memphis Center
Tue 05:11:11 PM 36.2842 -86.3808 239° Southwest 282 325 9,200 -1,113 Descending Memphis Center
Tue 05:12:13 PM 36.2453 -86.4622 239° Southwest 278 320 7,700 -1,306 Descending Memphis Center
Tue 05:13:15 PM 36.1908 -86.5267 224° Southwest 284 327 6,500 -1,306 Descending Memphis Center
Tue 05:14:17 PM 36.1044 -86.5625 199° South 281 323 5,000 -1,200 Descending Memphis Center
Tue 05:15:20 PM 36.0311 -86.5931 199° South 278 320 4,000 -1,152 Descending Memphis Center
Tue 05:16:22 PM 35.9856 -86.6453 223° Southwest 252 290 2,600 -823 Descending Memphis Center
Tue 05:17:24 PM 36.0217 -86.6906 315° West 188 216 2,300 -387 Descending Memphis Center
Tue 05:18:26 PM 36.0592 -86.6889 North 156 180 1,800 -629 Descending Memphis Center
Tue 05:19:28 PM 36.0936 -86.6747 18° North 138 159 1,000 -532 Descending Memphis Center
Tue 05:20:30 PM 36.1283 -86.6603 19° North 133 153 700 -290 Descending Memphis Center

Login

Don't have an account? Register now (free) for customized features, flight alerts, and more!